Time;durP1;ratioP1;P1;durP2;ratioP2;P2;SDS_P1;SDS_P2;PMS_P1;PMS_P2;Temp;Humidity;BMP_temperature;BMP_pressure;BME280_temperature;BME280_humidity;BME280_pressure;Samples;Min_cycle;Max_cycle;Signal;HPM_P1;HPM_P2
2023/06/11 00:01:14;;;;;;;12.45;7.95;;;17.20;99.90;;;;;;5088845;28;20107;-76
2023/06/11 00:03:46;;;;;;;16.27;7.78;;;17.30;99.90;;;;;;5088935;28;20043;-76
2023/06/11 00:06:17;;;;;;;11.38;7.55;;;17.40;99.90;;;;;;5087500;28;20028;-75
2023/06/11 00:08:44;;;;;;;12.35;7.85;;;17.50;99.90;;;;;;5088281;28;20170;-76
2023/06/11 00:11:10;;;;;;;14.88;7.68;;;17.70;99.90;;;;;;5095017;28;20028;-76
2023/06/11 00:13:36;;;;;;;11.77;7.30;;;17.60;99.90;;;;;;5109151;28;20516;-77
2023/06/11 00:16:01;;;;;;;12.88;7.57;;;17.60;99.90;;;;;;5098422;28;20365;-75
2023/06/11 00:18:27;;;;;;;11.30;7.25;;;17.70;99.90;;;;;;5086265;28;20032;-76
2023/06/11 00:20:53;;;;;;;14.05;7.22;;;17.60;99.90;;;;;;5120622;27;20534;-76
2023/06/11 00:23:18;;;;;;;11.93;7.45;;;17.70;99.90;;;;;;5088747;28;20085;-76
2023/06/11 00:25:44;;;;;;;9.88;6.95;;;17.70;99.90;;;;;;5088632;28;20764;-76
2023/06/11 00:28:10;;;;;;;12.68;7.32;;;17.70;99.90;;;;;;5111930;27;20035;-76
2023/06/11 00:30:36;;;;;;;12.10;7.72;;;17.60;99.90;;;;;;5072185;28;20036;-76
2023/06/11 00:33:01;;;;;;;11.38;7.00;;;17.60;99.90;;;;;;5087537;28;20024;-76
2023/06/11 00:35:27;;;;;;;9.95;7.07;;;17.50;99.90;;;;;;5069453;28;20031;-76
2023/06/11 00:37:55;;;;;;;10.52;6.70;;;17.40;99.90;;;;;;5080282;28;20035;-76
2023/06/11 00:40:20;;;;;;;10.82;6.72;;;17.40;99.90;;;;;;5069708;28;20115;-76
2023/06/11 00:42:49;;;;;;;10.43;6.63;;;17.50;99.90;;;;;;5068469;28;20599;-76
2023/06/11 00:45:14;;;;;;;11.35;7.05;;;17.50;99.90;;;;;;5067706;28;20579;-76
2023/06/11 00:47:40;;;;;;;11.23;6.88;;;17.50;99.90;;;;;;5078101;28;20052;-76
2023/06/11 00:50:07;;;;;;;10.02;6.97;;;17.60;99.90;;;;;;5087726;28;20435;-77
2023/06/11 00:52:33;;;;;;;11.27;6.93;;;17.50;99.90;;;;;;5120198;28;20039;-75
2023/06/11 00:54:59;;;;;;;9.88;6.82;;;17.50;99.90;;;;;;5085226;28;20059;-76
2023/06/11 00:57:25;;;;;;;9.88;6.90;;;17.60;99.90;;;;;;5088563;28;20056;-76
2023/06/11 00:59:55;;;;;;;9.60;6.55;;;17.60;99.90;;;;;;5088009;28;20028;-78
2023/06/11 01:02:36;;;;;;;12.65;7.05;;;17.50;99.90;;;;;;5086172;28;20034;-76
2023/06/11 01:05:03;;;;;;;;;;;17.50;99.90;;;;;;5087850;28;20046;-76
2023/06/11 01:07:34;;;;;;;10.75;7.22;;;17.50;99.90;;;;;;5128375;27;20003;-76
2023/06/11 01:10:01;;;;;;;11.32;7.70;;;17.50;99.90;;;;;;5092639;28;20052;-78
2023/06/11 01:12:27;;;;;;;13.45;7.60;;;17.50;99.90;;;;;;5123379;27;20051;-76
2023/06/11 01:14:52;;;;;;;10.52;7.47;;;17.40;99.90;;;;;;5123292;27;20473;-79
2023/06/11 01:17:40;;;;;;;12.73;7.80;;;17.40;99.90;;;;;;5090163;28;20038;-76
2023/06/11 01:20:25;;;;;;;12.98;8.77;;;17.40;99.90;;;;;;5090625;28;20035;-77
2023/06/11 01:23:17;;;;;;;16.50;7.97;;;17.40;99.90;;;;;;5070147;28;20070;-78
2023/06/11 01:26:20;;;;;;;13.85;8.68;;;17.00;99.90;;;;;;5090042;28;20028;-76
2023/06/11 01:28:49;;;;;;;10.70;7.65;;;16.70;99.90;;;;;;5090537;28;20093;-76
2023/06/11 01:31:16;;;;;;;12.80;8.17;;;16.60;99.90;;;;;;5073092;28;20575;-75
2023/06/11 01:33:43;;;;;;;12.65;8.43;;;16.50;99.90;;;;;;5110794;28;20365;-75
2023/06/11 01:36:10;;;;;;;14.43;9.05;;;16.50;99.90;;;;;;5111459;28;20035;-76
2023/06/11 01:38:41;;;;;;;14.18;8.60;;;16.50;99.90;;;;;;5101106;28;20115;-76
2023/06/11 01:41:08;;;;;;;14.95;8.35;;;16.50;99.90;;;;;;5078385;28;20728;-76
2023/06/11 01:43:34;;;;;;;14.93;8.80;;;16.60;99.90;;;;;;5085573;28;20111;-76
2023/06/11 01:46:01;;;;;;;13.02;8.77;;;16.60;99.90;;;;;;5088570;28;20109;-76
2023/06/11 01:48:27;;;;;;;13.90;8.07;;;16.60;99.90;;;;;;5089946;28;20028;-76
2023/06/11 01:50:52;;;;;;;15.38;8.98;;;16.60;99.90;;;;;;5091140;28;20119;-79
2023/06/11 01:53:18;;;;;;;13.77;7.97;;;16.60;99.90;;;;;;5073394;28;20377;-77
2023/06/11 01:55:43;;;;;;;14.27;9.05;;;16.60;99.90;;;;;;5077053;28;20036;-76
2023/06/11 01:58:10;;;;;;;12.73;8.65;;;16.50;99.90;;;;;;5123121;27;20083;-76
2023/06/11 02:00:35;;;;;;;13.45;8.98;;;16.20;99.90;;;;;;5087356;28;20338;-76
2023/06/11 02:03:02;;;;;;;13.95;8.25;;;16.00;99.90;;;;;;5070709;28;20504;-76
2023/06/11 02:05:28;;;;;;;15.23;9.35;;;15.80;99.90;;;;;;5071043;28;20029;-77
2023/06/11 02:07:54;;;;;;;15.32;8.13;;;15.80;99.90;;;;;;5070728;28;20033;-78
2023/06/11 02:10:19;;;;;;;17.42;8.90;;;15.70;99.90;;;;;;5108781;27;20037;-76
2023/06/11 02:12:45;;;;;;;14.20;8.43;;;15.70;99.90;;;;;;5085894;28;20746;-76
2023/06/11 02:15:12;;;;;;;14.68;8.82;;;15.50;99.90;;;;;;5069848;28;20033;-76
2023/06/11 02:17:38;;;;;;;15.82;9.38;;;15.40;99.90;;;;;;5091362;28;20040;-76
2023/06/11 02:20:08;;;;;;;16.80;8.57;;;15.40;99.90;;;;;;5096353;28;20105;-76
2023/06/11 02:22:34;;;;;;;13.97;8.57;;;15.40;99.90;;;;;;5089642;28;20060;-77
2023/06/11 02:25:01;;;;;;;15.10;8.80;;;15.50;99.90;;;;;;5090154;28;20266;-77
2023/06/11 02:27:27;;;;;;;12.60;7.97;;;15.50;99.90;;;;;;5079607;28;20465;-76
2023/06/11 02:29:52;;;;;;;15.40;8.63;;;15.50;99.90;;;;;;5070452;28;20111;-76
2023/06/11 02:32:18;;;;;;;17.77;9.20;;;15.50;99.90;;;;;;5069715;28;20048;-76
2023/06/11 02:34:44;;;;;;;13.65;9.07;;;15.40;99.90;;;;;;5102969;28;20113;-76
2023/06/11 02:37:09;;;;;;;15.82;9.23;;;15.40;99.90;;;;;;5110230;27;20613;-77
2023/06/11 02:39:35;;;;;;;17.00;8.93;;;15.30;99.90;;;;;;5089044;28;20032;-76
2023/06/11 02:42:01;;;;;;;13.20;9.00;;;15.30;99.90;;;;;;5088511;28;20115;-77
2023/06/11 02:44:26;;;;;;;13.90;9.15;;;15.10;99.90;;;;;;5074210;28;20028;-76
2023/06/11 02:46:52;;;;;;;13.85;8.70;;;15.00;99.90;;;;;;5089841;28;20535;-76
2023/06/11 02:49:17;;;;;;;15.05;8.85;;;14.90;99.90;;;;;;5089518;28;20039;-76
2023/06/11 02:51:43;;;;;;;13.60;8.63;;;14.90;99.90;;;;;;5090222;28;20055;-76
2023/06/11 02:54:09;;;;;;;15.32;8.40;;;14.90;99.90;;;;;;5089525;28;20035;-76
2023/06/11 02:56:34;;;;;;;15.45;8.93;;;14.90;99.90;;;;;;5088579;28;20472;-76
2023/06/11 02:59:00;;;;;;;13.10;8.65;;;15.00;99.90;;;;;;5089464;28;20052;-78
2023/06/11 03:01:25;;;;;;;13.52;8.27;;;14.90;99.90;;;;;;5084846;28;20055;-76
2023/06/11 03:03:51;;;;;;;11.63;7.63;;;15.00;99.90;;;;;;5069909;28;20145;-76
2023/06/11 03:06:18;;;;;;;15.30;8.77;;;14.90;99.90;;;;;;5076180;28;20594;-76
2023/06/11 03:08:43;;;;;;;13.73;8.93;;;14.80;99.90;;;;;;5087884;28;20563;-76
2023/06/11 03:11:09;;;;;;;12.90;8.80;;;14.90;99.90;;;;;;5082084;28;20115;-77
2023/06/11 03:13:35;;;;;;;16.33;9.02;;;14.90;99.90;;;;;;5106063;27;20039;-76
2023/06/11 03:16:00;;;;;;;14.88;8.35;;;15.00;99.90;;;;;;5071122;28;20489;-78
2023/06/11 03:18:26;;;;;;;12.48;8.25;;;14.90;99.90;;;;;;5119880;27;20491;-76
2023/06/11 03:20:51;;;;;;;18.45;8.55;;;14.90;99.90;;;;;;5091357;28;20074;-76
2023/06/11 03:23:17;;;;;;;14.18;9.52;;;14.90;99.90;;;;;;5086014;28;20024;-77
2023/06/11 03:25:43;;;;;;;14.82;9.10;;;14.90;99.90;;;;;;5088962;28;20035;-76
2023/06/11 03:28:09;;;;;;;15.85;8.95;;;14.80;99.90;;;;;;5088855;28;20036;-76
2023/06/11 03:30:35;;;;;;;14.68;9.07;;;14.60;99.90;;;;;;5082687;28;20097;-77
2023/06/11 03:33:00;;;;;;;18.15;9.43;;;14.50;99.90;;;;;;5102978;28;20052;-79
2023/06/11 03:35:26;;;;;;;14.45;9.48;;;14.40;99.90;;;;;;5085816;28;20115;-76
2023/06/11 03:37:52;;;;;;;15.70;8.98;;;14.40;99.90;;;;;;5086639;28;20028;-77
2023/06/11 03:40:17;;;;;;;13.75;9.23;;;14.40;99.90;;;;;;5083292;28;20028;-76
2023/06/11 03:42:43;;;;;;;15.40;9.18;;;14.30;99.90;;;;;;5086141;28;20048;-75
2023/06/11 03:45:09;;;;;;;14.20;9.25;;;14.30;99.90;;;;;;5075986;28;20094;-76
2023/06/11 03:47:34;;;;;;;19.65;10.20;;;14.30;99.90;;;;;;5079898;28;20085;-76
2023/06/11 03:50:00;;;;;;;14.15;8.98;;;14.40;99.90;;;;;;5091530;28;20142;-79
2023/06/11 03:52:26;;;;;;;15.60;9.48;;;14.50;99.90;;;;;;5085347;28;20023;-76
2023/06/11 03:54:51;;;;;;;16.58;9.77;;;14.60;99.90;;;;;;5113375;27;20031;-77
2023/06/11 03:57:20;;;;;;;16.73;9.52;;;14.70;99.90;;;;;;5120752;27;20560;-77
2023/06/11 03:59:45;;;;;;;14.02;9.20;;;14.80;99.90;;;;;;5085977;28;20111;-76
2023/06/11 04:02:11;;;;;;;16.42;9.95;;;14.80;99.90;;;;;;5086356;28;20126;-79
2023/06/11 04:04:36;;;;;;;17.85;9.88;;;14.90;99.90;;;;;;5071149;28;20081;-76
2023/06/11 04:07:02;;;;;;;16.52;10.52;;;15.00;99.90;;;;;;5082109;28;20054;-78
2023/06/11 04:09:28;;;;;;;17.63;10.00;;;15.00;99.90;;;;;;5078512;28;20108;-77
2023/06/11 04:11:53;;;;;;;16.02;10.32;;;15.10;99.90;;;;;;5085759;28;20476;-76
2023/06/11 04:14:19;;;;;;;15.00;9.70;;;15.10;99.90;;;;;;5066633;28;20052;-77
2023/06/11 04:16:45;;;;;;;17.92;10.38;;;15.20;99.90;;;;;;5070581;28;20540;-77
2023/06/11 04:19:10;;;;;;;14.70;9.55;;;15.30;99.90;;;;;;5086448;28;20074;-76
2023/06/11 04:21:36;;;;;;;14.57;9.73;;;15.30;99.90;;;;;;5121451;27;20024;-77
2023/06/11 04:24:03;;;;;;;14.32;9.27;;;15.40;99.90;;;;;;5088557;28;20107;-79
2023/06/11 04:26:31;;;;;;;15.65;9.68;;;15.50;99.90;;;;;;5104775;28;20032;-77
2023/06/11 04:28:57;;;;;;;15.88;9.60;;;15.70;99.90;;;;;;5082540;28;20045;-76
2023/06/11 04:31:26;;;;;;;14.63;9.55;;;15.80;99.90;;;;;;5067811;28;20209;-77
2023/06/11 04:33:56;;;;;;;17.25;10.77;;;16.00;99.90;;;;;;5079721;28;20035;-77
2023/06/11 04:36:24;;;;;;;14.93;10.10;;;16.20;99.90;;;;;;5089348;28;20024;-76
2023/06/11 04:38:51;;;;;;;16.55;10.48;;;16.30;99.90;;;;;;5083265;28;20054;-79
2023/06/11 04:41:17;;;;;;;19.17;10.52;;;16.40;99.90;;;;;;5099483;28;20046;-78
2023/06/11 04:43:44;;;;;;;15.85;10.52;;;16.50;99.90;;;;;;5101680;28;20034;-77
2023/06/11 04:46:10;;;;;;;15.25;9.93;;;16.60;99.90;;;;;;5100868;28;20063;-77
2023/06/11 04:48:37;;;;;;;17.33;10.30;;;16.60;99.90;;;;;;5099045;28;20028;-76
2023/06/11 04:51:04;;;;;;;15.45;10.20;;;16.70;99.90;;;;;;5094194;28;20127;-80
2023/06/11 04:53:31;;;;;;;20.98;10.88;;;16.70;99.90;;;;;;5098908;28;20110;-77
2023/06/11 04:56:02;;;;;;;17.77;10.32;;;16.80;99.90;;;;;;5106553;28;20035;-76
2023/06/11 04:58:29;;;;;;;17.73;10.75;;;16.90;99.90;;;;;;5099867;28;20366;-77
2023/06/11 05:00:58;;;;;;;15.70;10.18;;;17.10;99.90;;;;;;5104526;28;20407;-76
2023/06/11 05:03:25;;;;;;;15.65;10.23;;;17.20;99.90;;;;;;5103512;28;20110;-76
2023/06/11 05:05:52;;;;;;;15.68;10.05;;;17.30;99.90;;;;;;5081375;28;20034;-76
2023/06/11 05:08:18;;;;;;;17.95;10.68;;;17.30;99.90;;;;;;5069292;28;20411;-76
2023/06/11 05:10:47;;;;;;;15.23;10.23;;;17.50;99.90;;;;;;5103233;27;20044;-77
2023/06/11 05:13:13;;;;;;;15.70;10.65;;;17.50;99.90;;;;;;5076709;28;20034;-76
2023/06/11 05:15:39;;;;;;;14.20;9.50;;;17.50;99.90;;;;;;5070433;28;20033;-76
2023/06/11 05:18:05;;;;;;;16.63;10.00;;;17.60;99.90;;;;;;5076667;28;20036;-79
2023/06/11 05:20:30;;;;;;;16.63;9.55;;;17.80;99.90;;;;;;5080473;28;20035;-76
2023/06/11 05:22:59;;;;;;;15.38;10.18;;;18.00;99.90;;;;;;5070121;28;20028;-76
2023/06/11 05:25:28;;;;;;;13.70;9.25;;;18.10;99.90;;;;;;5077366;28;20024;-79
2023/06/11 05:27:58;;;;;;;15.82;9.48;;;18.30;99.90;;;;;;5078295;28;20067;-76
2023/06/11 05:30:26;;;;;;;14.23;10.13;;;18.40;99.90;;;;;;5075069;28;20043;-76
2023/06/11 05:32:54;;;;;;;13.85;9.50;;;18.60;99.90;;;;;;5072508;28;20116;-76
2023/06/11 05:35:20;;;;;;;15.90;9.40;;;18.70;99.90;;;;;;5071669;28;20040;-78
2023/06/11 05:37:46;;;;;;;14.70;9.77;;;18.80;99.90;;;;;;5078957;28;20085;-77
2023/06/11 05:40:12;;;;;;;15.27;9.98;;;18.80;99.90;;;;;;5075293;28;20039;-76
2023/06/11 05:42:38;;;;;;;14.13;9.90;;;18.70;99.90;;;;;;5071502;28;20028;-77
2023/06/11 05:45:06;;;;;;;17.00;9.45;;;18.70;99.90;;;;;;5105826;27;20031;-76
2023/06/11 05:47:32;;;;;;;14.70;9.35;;;18.60;99.90;;;;;;5075081;28;20079;-76
2023/06/11 05:49:58;;;;;;;13.30;9.70;;;18.70;99.90;;;;;;5070385;28;20138;-77
2023/06/11 05:52:24;;;;;;;13.50;9.45;;;19.00;99.90;;;;;;5071213;28;20034;-77
2023/06/11 05:54:50;;;;;;;14.68;10.30;;;19.20;99.90;;;;;;5087338;28;20111;-76
2023/06/11 05:57:23;;;;;;;15.40;9.68;;;19.40;99.90;;;;;;5070902;28;20044;-77
2023/06/11 05:59:49;;;;;;;13.35;9.13;;;19.50;99.90;;;;;;5069388;28;20047;-76
2023/06/11 06:02:15;;;;;;;12.77;9.23;;;19.60;99.90;;;;;;5084402;28;20032;-76
2023/06/11 06:04:41;;;;;;;13.77;9.43;;;19.70;99.90;;;;;;5068763;28;20046;-77
2023/06/11 06:07:06;;;;;;;13.75;9.43;;;19.70;99.90;;;;;;5101708;27;20036;-80
2023/06/11 06:09:33;;;;;;;15.77;10.02;;;19.80;99.90;;;;;;5079032;28;20043;-77
2023/06/11 06:12:00;;;;;;;14.85;9.50;;;19.80;99.90;;;;;;5069825;28;20036;-77
2023/06/11 06:14:25;;;;;;;12.48;9.20;;;19.80;99.90;;;;;;5069068;28;20032;-76
2023/06/11 06:16:51;;;;;;;14.68;9.05;;;20.00;99.90;;;;;;5080173;28;20410;-80
2023/06/11 06:19:17;;;;;;;12.82;9.27;;;20.20;99.90;;;;;;5101413;27;20040;-77
2023/06/11 06:21:42;;;;;;;14.18;9.35;;;20.40;99.90;;;;;;5074074;28;20032;-76
2023/06/11 06:24:11;;;;;;;13.75;8.90;;;20.50;99.90;;;;;;5068961;28;20028;-81
2023/06/11 06:26:40;;;;;;;13.52;8.55;;;20.60;99.90;;;;;;5084309;28;20060;-77
2023/06/11 06:29:09;;;;;;;17.73;8.80;;;20.70;99.90;;;;;;5104421;27;20036;-79
2023/06/11 06:31:38;;;;;;;18.00;8.55;;;20.90;99.90;;;;;;5100908;27;20056;-77
2023/06/11 06:34:04;;;;;;;11.32;8.30;;;21.00;99.90;;;;;;5075448;28;20397;-76
2023/06/11 06:36:30;;;;;;;11.27;8.45;;;21.10;99.90;;;;;;5075568;28;20024;-77
2023/06/11 06:38:55;;;;;;;13.50;8.90;;;21.10;99.90;;;;;;5077513;28;20028;-77
2023/06/11 06:41:21;;;;;;;13.55;8.82;;;21.20;99.90;;;;;;5076175;28;20067;-80
2023/06/11 06:43:47;;;;;;;13.27;8.18;;;21.30;99.90;;;;;;5080834;28;20032;-78
2023/06/11 06:46:12;;;;;;;19.48;8.40;;;21.40;99.90;;;;;;5087381;28;20042;-81
2023/06/11 06:48:38;;;;;;;21.98;9.07;;;21.60;99.90;;;;;;5080802;28;20141;-78
2023/06/11 06:51:04;;;;;;;18.67;9.02;;;21.80;99.90;;;;;;5072700;28;20032;-83
2023/06/11 06:53:30;;;;;;;12.00;8.25;;;21.80;99.90;;;;;;5078359;28;20020;-83
2023/06/11 06:55:58;;;;;;;14.88;8.50;;;21.90;99.90;;;;;;5071115;28;20060;-78
2023/06/11 06:58:24;;;;;;;12.23;8.70;;;22.00;99.90;;;;;;5071513;28;20055;-79
2023/06/11 07:00:50;;;;;;;11.63;8.43;;;22.00;99.90;;;;;;5079773;28;20071;-77
2023/06/11 07:03:15;;;;;;;10.98;8.25;;;22.00;99.90;;;;;;5067488;28;20144;-78
2023/06/11 07:05:41;;;;;;;11.93;7.95;;;22.00;99.90;;;;;;5068327;28;20487;-77
2023/06/11 07:08:10;;;;;;;10.82;8.00;;;22.10;99.90;;;;;;5070442;28;20029;-79
2023/06/11 07:10:35;;;;;;;15.20;7.65;;;22.00;99.90;;;;;;5067634;28;20039;-79
2023/06/11 07:13:01;;;;;;;10.27;7.65;;;22.20;99.90;;;;;;5066897;28;20029;-79
2023/06/11 07:15:27;;;;;;;11.18;8.05;;;22.40;99.90;;;;;;5075414;28;20080;-78
2023/06/11 07:17:52;;;;;;;12.40;7.57;;;22.50;99.90;;;;;;5084867;28;20050;-76
2023/06/11 07:20:18;;;;;;;10.40;7.40;;;22.60;99.90;;;;;;5066971;28;20060;-79
2023/06/11 07:22:44;;;;;;;14.32;7.57;;;22.60;99.90;;;;;;5100572;28;20074;-79
2023/06/11 07:25:09;;;;;;;13.13;7.45;;;22.80;99.90;;;;;;5081951;28;20036;-77
2023/06/11 07:27:35;;;;;;;11.15;8.05;;;22.90;99.90;;;;;;5068938;28;20036;-77
2023/06/11 07:30:01;;;;;;;13.13;7.75;;;22.70;99.90;;;;;;5068094;28;20520;-76
2023/06/11 07:32:27;;;;;;;16.25;7.40;;;22.80;99.90;;;;;;5072096;28;20028;-79
2023/06/11 07:34:53;;;;;;;10.75;7.53;;;22.90;99.90;;;;;;5086246;28;20035;-78
2023/06/11 07:37:18;;;;;;;12.55;7.57;;;23.10;99.90;;;;;;5079782;28;20028;-77
2023/06/11 07:39:44;;;;;;;14.32;8.18;;;23.10;98.30;;;;;;5101329;27;20086;-80
2023/06/11 07:42:10;;;;;;;12.73;7.75;;;23.20;97.90;;;;;;5099956;27;20556;-78
2023/06/11 07:44:35;;;;;;;11.85;7.55;;;23.10;97.30;;;;;;5067311;28;20024;-78
2023/06/11 07:47:01;;;;;;;11.70;7.93;;;23.30;98.00;;;;;;5070260;28;20443;-77
2023/06/11 07:49:27;;;;;;;12.35;8.00;;;23.10;97.30;;;;;;5067420;28;20036;-77
2023/06/11 07:51:52;;;;;;;11.93;8.05;;;23.10;97.00;;;;;;5071161;28;20017;-78
2023/06/11 07:54:18;;;;;;;11.70;7.72;;;23.20;95.90;;;;;;5083789;28;20063;-78
2023/06/11 07:56:46;;;;;;;13.43;7.80;;;23.20;95.10;;;;;;5074592;28;20445;-75
2023/06/11 07:59:12;;;;;;;11.35;7.65;;;23.30;94.50;;;;;;5077786;28;20516;-75
2023/06/11 08:01:38;;;;;;;11.57;7.43;;;23.30;93.50;;;;;;5067595;28;20116;-76
2023/06/11 08:04:04;;;;;;;12.10;7.63;;;23.50;93.40;;;;;;5080113;28;20174;-75
2023/06/11 08:06:30;;;;;;;11.70;7.80;;;23.40;91.40;;;;;;5066961;28;20024;-75
2023/06/11 08:08:56;;;;;;;14.15;7.75;;;23.40;91.80;;;;;;5075900;28;20028;-75
2023/06/11 08:11:22;;;;;;;12.63;7.30;;;23.50;91.90;;;;;;5066760;28;20087;-75
2023/06/11 08:13:48;;;;;;;10.38;7.40;;;23.70;91.10;;;;;;5077239;28;20397;-75
2023/06/11 08:16:15;;;;;;;13.45;8.23;;;23.80;90.70;;;;;;5069000;28;20021;-76
2023/06/11 08:18:41;;;;;;;11.25;7.25;;;23.90;90.60;;;;;;5074110;28;20063;-74
2023/06/11 08:21:06;;;;;;;12.07;7.60;;;23.90;90.30;;;;;;5066694;28;20458;-79
2023/06/11 08:23:35;;;;;;;11.93;7.55;;;23.90;91.70;;;;;;5083446;28;20034;-76
2023/06/11 08:26:01;;;;;;;13.05;7.35;;;24.20;90.70;;;;;;5075514;28;20384;-78
2023/06/11 08:28:28;;;;;;;15.25;7.55;;;24.10;88.60;;;;;;5072876;28;20023;-77
2023/06/11 08:30:54;;;;;;;10.90;7.82;;;24.30;89.10;;;;;;5077886;28;20035;-80
2023/06/11 08:33:20;;;;;;;11.93;7.88;;;24.40;89.80;;;;;;5079888;28;20066;-77
2023/06/11 08:35:47;;;;;;;16.23;8.40;;;24.60;88.30;;;;;;5066652;28;20032;-77
2023/06/11 08:38:13;;;;;;;11.27;7.57;;;24.60;89.10;;;;;;5067739;28;20041;-76
2023/06/11 08:40:42;;;;;;;9.85;7.07;;;24.50;85.20;;;;;;5066554;28;20578;-74
2023/06/11 08:43:08;;;;;;;16.02;7.60;;;24.50;86.00;;;;;;5068098;28;20466;-76
2023/06/11 08:45:34;;;;;;;12.20;7.70;;;24.30;86.50;;;;;;5089211;28;20031;-77
2023/06/11 08:48:03;;;;;;;12.20;7.82;;;24.40;88.10;;;;;;5091311;28;20610;-76
2023/06/11 08:50:31;;;;;;;14.90;8.10;;;24.40;85.80;;;;;;5100906;28;20365;-75
2023/06/11 08:53:00;;;;;;;12.15;7.63;;;24.30;87.10;;;;;;5101493;28;20019;-75
2023/06/11 08:55:27;;;;;;;9.65;7.57;;;24.40;87.70;;;;;;5101110;28;20036;-75
2023/06/11 08:57:53;;;;;;;16.55;8.27;;;24.40;85.30;;;;;;5103486;28;20031;-75
2023/06/11 09:00:19;;;;;;;12.50;8.50;;;24.40;86.30;;;;;;5098873;28;20037;-76
2023/06/11 09:02:45;;;;;;;13.50;7.63;;;24.50;85.10;;;;;;5100004;28;20034;-78
2023/06/11 09:05:11;;;;;;;11.82;8.48;;;24.60;84.70;;;;;;5098667;28;20816;-76
2023/06/11 09:07:37;;;;;;;11.90;8.25;;;24.60;85.50;;;;;;5101418;28;20077;-76
2023/06/11 09:10:10;;;;;;;10.38;8.05;;;24.50;86.30;;;;;;5106895;28;20040;-77
2023/06/11 09:12:36;;;;;;;15.60;8.20;;;24.60;88.30;;;;;;5098510;28;20031;-76
2023/06/11 09:15:04;;;;;;;14.07;8.35;;;24.70;88.60;;;;;;5104841;28;20031;-76
2023/06/11 09:17:37;;;;;;;14.13;8.20;;;24.80;85.40;;;;;;5098947;28;20479;-76
2023/06/11 09:20:08;;;;;;;15.23;7.78;;;25.00;84.40;;;;;;5096897;28;20035;-77
2023/06/11 09:22:36;;;;;;;10.50;7.93;;;25.20;84.70;;;;;;5098273;28;20557;-76
2023/06/11 09:25:07;;;;;;;13.90;7.90;;;25.20;82.90;;;;;;5095773;28;20031;-75
2023/06/11 09:27:33;;;;;;;11.38;7.80;;;25.50;81.70;;;;;;5102621;28;20023;-75
2023/06/11 09:30:15;;;;;;;11.43;7.45;;;25.60;83.50;;;;;;5101132;28;20049;-77
2023/06/11 09:32:42;;;;;;;16.58;8.68;;;25.40;82.10;;;;;;5105362;28;20028;-75
2023/06/11 09:35:09;;;;;;;16.27;9.25;;;25.40;82.60;;;;;;5102284;28;20032;-76
2023/06/11 09:37:42;;;;;;;15.80;8.10;;;25.10;83.30;;;;;;5096064;28;20038;-76
2023/06/11 09:40:15;;;;;;;11.77;8.18;;;24.60;84.00;;;;;;5105366;28;20489;-76
2023/06/11 09:42:43;;;;;;;11.18;8.55;;;24.70;85.40;;;;;;5105937;28;20023;-77
2023/06/11 09:45:20;;;;;;;10.55;8.23;;;24.90;83.90;;;;;;5095404;28;20093;-75
2023/06/11 09:47:47;;;;;;;13.15;7.82;;;25.00;82.10;;;;;;5104266;27;20044;-77
2023/06/11 09:50:15;;;;;;;12.65;7.90;;;24.80;82.10;;;;;;5105517;28;20070;-76
2023/06/11 09:52:43;;;;;;;13.15;7.90;;;24.90;82.70;;;;;;5104682;28;20106;-76
2023/06/11 09:55:09;;;;;;;12.32;8.82;;;25.20;80.90;;;;;;5105648;28;20030;-76
2023/06/11 09:57:38;;;;;;;13.60;7.70;;;25.10;78.10;;;;;;5107675;28;20061;-75
2023/06/11 10:00:12;;;;;;;16.92;8.82;;;25.20;77.80;;;;;;5105304;28;20032;-76
2023/06/11 10:02:39;;;;;;;11.48;7.40;;;25.60;77.80;;;;;;5099995;28;20482;-75
2023/06/11 10:05:06;;;;;;;11.52;7.68;;;26.00;78.20;;;;;;5105091;28;20063;-76
2023/06/11 10:08:02;;;;;;;14.43;7.68;;;26.30;75.10;;;;;;5109025;28;20084;-76
2023/06/11 10:10:30;;;;;;;12.10;7.78;;;26.20;73.00;;;;;;5067861;28;20043;-76
2023/06/11 10:12:55;;;;;;;11.07;7.18;;;26.00;74.50;;;;;;5097410;28;20023;-75
2023/06/11 10:15:23;;;;;;;12.20;8.15;;;26.10;75.10;;;;;;5109589;28;20077;-76
2023/06/11 10:17:50;;;;;;;11.55;8.48;;;26.40;72.00;;;;;;5102908;28;20036;-75
2023/06/11 10:20:31;;;;;;;10.90;8.55;;;26.30;72.80;;;;;;5108269;28;20377;-75
2023/06/11 10:23:10;;;;;;;11.23;7.90;;;26.30;72.90;;;;;;5108076;28;20115;-75
2023/06/11 10:25:40;;;;;;;11.73;7.80;;;26.40;74.00;;;;;;5101881;28;20072;-77
2023/06/11 10:28:07;;;;;;;19.20;7.40;;;26.60;70.00;;;;;;5105670;28;20032;-77
2023/06/11 10:30:33;;;;;;;10.88;7.20;;;26.50;66.40;;;;;;5105247;28;20050;-75
2023/06/11 10:32:59;;;;;;;10.48;8.07;;;26.50;69.30;;;;;;5103028;28;20036;-75
2023/06/11 10:35:32;;;;;;;9.43;7.57;;;26.40;69.60;;;;;;5110594;28;20476;-78
2023/06/11 10:38:07;;;;;;;20.38;8.50;;;26.60;71.10;;;;;;5106288;28;20035;-74
2023/06/11 10:40:37;;;;;;;11.13;8.63;;;26.80;71.90;;;;;;5105475;28;20038;-74
2023/06/11 10:43:14;;;;;;;10.40;8.02;;;26.70;71.10;;;;;;5101556;28;20028;-75
2023/06/11 10:45:40;;;;;;;13.30;8.13;;;26.40;71.10;;;;;;5106844;28;20038;-76
2023/06/11 10:48:05;;;;;;;13.55;7.97;;;26.40;69.20;;;;;;5098300;28;20036;-77
2023/06/11 10:50:31;;;;;;;12.07;8.52;;;26.60;71.60;;;;;;5106664;28;20031;-78
2023/06/11 10:53:14;;;;;;;11.20;7.95;;;26.90;70.90;;;;;;5104074;28;20479;-77
2023/06/11 10:55:44;;;;;;;16.02;8.48;;;27.20;69.20;;;;;;5105692;28;20031;-77
2023/06/11 10:58:23;;;;;;;19.90;7.80;;;26.70;67.80;;;;;;5101991;28;20031;-77
2023/06/11 11:00:52;;;;;;;15.48;7.80;;;26.20;69.10;;;;;;5101655;28;20156;-77
2023/06/11 11:03:21;;;;;;;13.35;7.97;;;26.60;70.10;;;;;;5106325;28;20031;-75
2023/06/11 11:05:49;;;;;;;17.90;8.63;;;26.90;67.20;;;;;;5103278;28;20038;-76
2023/06/11 11:08:15;;;;;;;10.52;7.90;;;26.60;67.20;;;;;;5104214;28;20027;-80
2023/06/11 11:10:42;;;;;;;11.68;7.65;;;26.20;70.00;;;;;;5107597;28;20031;-74
2023/06/11 11:13:07;;;;;;;16.77;7.07;;;25.80;67.60;;;;;;5097350;28;20028;-78
2023/06/11 11:15:34;;;;;;;8.82;7.53;;;25.90;69.60;;;;;;5104449;28;20067;-79
2023/06/11 11:18:00;;;;;;;13.15;7.80;;;26.30;68.40;;;;;;5100208;28;20069;-78
2023/06/11 11:20:25;;;;;;;10.02;7.22;;;26.60;66.60;;;;;;5100551;28;20737;-77
2023/06/11 11:22:56;;;;;;;13.70;7.63;;;26.60;66.60;;;;;;5102379;28;20468;-77
2023/06/11 11:25:31;;;;;;;13.95;8.00;;;26.80;67.10;;;;;;5099900;28;20398;-75
2023/06/11 11:27:57;;;;;;;13.35;8.73;;;26.90;68.10;;;;;;5102330;28;20028;-76
2023/06/11 11:30:24;;;;;;;13.80;7.72;;;26.40;65.80;;;;;;5106957;28;20039;-74
2023/06/11 11:32:52;;;;;;;9.07;7.50;;;25.90;67.10;;;;;;5082958;28;20083;-76
2023/06/11 11:35:20;;;;;;;16.70;8.73;;;26.00;67.30;;;;;;5075493;28;20082;-79
2023/06/11 11:37:46;;;;;;;9.60;6.90;;;26.60;65.80;;;;;;5093625;28;20211;-77
2023/06/11 11:40:12;;;;;;;16.08;7.32;;;27.40;63.30;;;;;;5097231;27;20042;-76
2023/06/11 11:42:55;;;;;;;8.63;7.10;;;27.30;64.00;;;;;;5104526;28;20028;-80
2023/06/11 11:45:32;;;;;;;12.30;7.50;;;26.90;65.40;;;;;;5084871;28;20111;-76
2023/06/11 11:48:00;;;;;;;15.75;7.90;;;26.50;65.70;;;;;;5088136;28;20430;-77
2023/06/11 11:50:27;;;;;;;11.88;7.35;;;26.30;65.50;;;;;;5096445;28;20035;-74
2023/06/11 11:53:11;;;;;;;11.50;7.85;;;26.60;65.10;;;;;;5106379;28;20031;-77
2023/06/11 11:55:45;;;;;;;9.82;7.55;;;26.80;64.30;;;;;;5094938;28;20115;-78
2023/06/11 11:58:13;;;;;;;12.07;7.47;;;26.80;64.50;;;;;;5100416;28;20096;-77
2023/06/11 12:00:53;;;;;;;11.15;7.95;;;26.90;62.90;;;;;;5093104;28;20498;-77
2023/06/11 12:03:21;;;;;;;10.48;6.82;;;27.20;62.40;;;;;;5101435;28;20047;-76
2023/06/11 12:06:07;;;;;;;11.45;6.60;;;27.60;59.20;;;;;;5096204;28;20277;-76
2023/06/11 12:08:35;;;;;;;9.45;7.13;;;27.30;59.70;;;;;;5091488;28;20055;-78
2023/06/11 12:11:03;;;;;;;12.95;7.20;;;26.80;60.70;;;;;;5086042;28;20036;-78
2023/06/11 12:13:29;;;;;;;10.73;6.97;;;27.00;63.40;;;;;;5105312;28;20031;-79
2023/06/11 12:15:55;;;;;;;12.98;7.82;;;27.00;65.20;;;;;;5084474;28;20047;-77
2023/06/11 12:18:21;;;;;;;14.18;8.07;;;27.30;62.00;;;;;;5077602;28;20186;-76
2023/06/11 12:20:46;;;;;;;10.77;8.05;;;27.10;61.30;;;;;;5081020;28;20039;-75
2023/06/11 12:23:12;;;;;;;9.88;7.55;;;26.70;63.10;;;;;;5076684;28;20144;-78
2023/06/11 12:25:39;;;;;;;8.95;7.50;;;26.90;64.10;;;;;;5063499;28;20107;-80
2023/06/11 12:28:05;;;;;;;9.75;7.68;;;26.90;61.50;;;;;;5076379;28;20032;-79
2023/06/11 12:30:33;;;;;;;12.95;7.93;;;27.00;62.80;;;;;;5075032;28;20399;-79
2023/06/11 12:32:59;;;;;;;16.33;8.07;;;26.60;60.70;;;;;;5076037;28;20065;-76
2023/06/11 12:35:28;;;;;;;11.65;7.35;;;26.50;61.00;;;;;;5084754;28;20383;-75
2023/06/11 12:37:54;;;;;;;10.23;7.22;;;26.60;61.70;;;;;;5081723;28;20029;-76